Time,TemperatureF,DewpointF,PressureIn,WindDirection,WindDirectionDegrees,WindSpeedMPH,WindSpeedGustMPH,Humidity,HourlyPrecipIn,Conditions,Clouds,dailyrainin,SoftwareType,DateUTC
2013-08-23 00:13:00,69.0,67.0,30.09,WSW,253,0.0,4.0,92,0.00,,,0.02,,2013-08-23 04:13:00,
2013-08-23 00:24:00,69.0,66.0,30.09,WSW,242,1.0,4.0,91,0.00,,,0.02,,2013-08-23 04:24:00,
2013-08-23 00:43:00,68.0,65.0,30.09,WSW,242,0.0,4.0,90,0.00,,,0.02,,2013-08-23 04:43:00,
2013-08-23 00:54:00,69.0,66.0,30.09,WSW,241,0.0,2.0,89,0.00,,,0.02,,2013-08-23 04:54:00,
2013-08-23 01:13:00,68.0,65.0,30.09,SW,224,2.0,5.0,89,0.00,,,0.02,,2013-08-23 05:13:00,
2013-08-23 01:22:00,69.0,66.0,30.09,SW,225,1.0,3.0,89,0.00,,,0.02,,2013-08-23 05:22:00,
2013-08-23 01:42:00,68.0,65.0,30.09,WSW,256,0.0,5.0,89,0.00,,,0.02,,2013-08-23 05:42:00,
2013-08-23 01:53:00,68.0,65.0,30.08,WSW,250,0.0,5.0,90,0.01,,,0.03,,2013-08-23 05:53:00,
2013-08-23 02:12:00,68.0,65.0,30.07,WSW,250,0.0,3.0,90,0.01,,,0.01,,2013-08-23 06:12:00,
2013-08-23 02:22:00,68.0,65.0,30.07,SSE,154,0.0,1.0,91,0.02,,,0.02,,2013-08-23 06:22:00,
2013-08-23 02:42:00,68.0,66.0,30.07,SSE,154,0.0,0.0,92,0.02,,,0.02,,2013-08-23 06:42:00,
2013-08-23 02:52:00,67.0,65.0,30.06,SSE,154,0.0,0.0,93,0.01,,,0.02,,2013-08-23 06:52:00,
2013-08-23 03:12:00,67.0,65.0,30.07,SSE,154,0.0,0.0,93,0.01,,,0.02,,2013-08-23 07:12:00,
2013-08-23 03:22:00,67.0,65.0,30.07,SSE,154,1.0,4.0,93,0.12,,,0.14,,2013-08-23 07:22:00,
2013-08-23 03:53:00,67.0,65.0,30.06,SSE,154,0.0,0.0,93,0.29,,,0.31,,2013-08-23 07:53:00,
2013-08-23 04:13:00,66.0,64.0,30.06,SSE,154,0.0,1.0,93,0.30,,,0.32,,2013-08-23 08:13:00,
2013-08-23 04:22:00,67.0,65.0,30.05,SSE,154,0.0,2.0,94,0.52,,,0.66,,2013-08-23 08:22:00,
2013-08-23 04:42:00,66.0,64.0,30.05,SSE,154,0.0,4.0,94,0.94,,,1.24,,2013-08-23 08:42:00,
2013-08-23 04:52:00,66.0,64.0,30.05,SSE,150,0.0,1.0,94,1.16,,,1.47,,2013-08-23 08:52:00,
2013-08-23 05:12:00,66.0,64.0,30.05,SSE,150,2.0,4.0,94,1.18,,,1.50,,2013-08-23 09:12:00,
2013-08-23 05:21:00,66.0,64.0,30.05,SSE,151,0.0,4.0,94,0.87,,,1.52,,2013-08-23 09:21:00,
2013-08-23 05:43:00,66.0,64.0,30.06,West,262,1.0,6.0,94,0.30,,,1.53,,2013-08-23 09:43:00,
2013-08-23 05:53:00,65.0,63.0,30.06,SW,223,2.0,4.0,94,0.10,,,1.57,,2013-08-23 09:53:00,
2013-08-23 06:13:00,65.0,63.0,30.05,SW,219,0.0,4.0,94,0.11,,,1.61,,2013-08-23 10:13:00,
2013-08-23 06:23:00,65.0,63.0,30.05,SW,219,0.0,0.0,94,0.17,,,1.69,,2013-08-23 10:23:00,
2013-08-23 06:42:00,65.0,63.0,30.05,SSW,213,0.0,1.0,94,0.18,,,1.71,,2013-08-23 10:42:00,
2013-08-23 06:53:00,65.0,63.0,30.06,SSW,213,0.0,0.0,94,0.15,,,1.72,,2013-08-23 10:53:00,
2013-08-23 07:11:00,64.0,63.0,30.07,SSW,213,0.0,0.0,95,0.12,,,1.73,,2013-08-23 11:11:00,
2013-08-23 07:22:00,65.0,64.0,30.08,SSW,213,0.0,0.0,95,0.05,,,1.74,,2013-08-23 11:22:00,
2013-08-23 07:42:00,65.0,64.0,30.07,SSW,213,0.0,0.0,95,0.05,,,1.76,,2013-08-23 11:42:00,
2013-08-23 07:53:00,64.0,63.0,30.07,SSW,213,0.0,0.0,95,0.06,,,1.78,,2013-08-23 11:53:00,
2013-08-23 08:11:00,63.0,61.0,30.07,SSW,213,0.0,1.0,94,0.06,,,1.79,,2013-08-23 12:11:00,
2013-08-23 08:22:00,63.0,62.0,30.07,SSW,213,0.0,0.0,95,0.07,,,1.81,,2013-08-23 12:22:00,
2013-08-23 08:42:00,63.0,62.0,30.08,SSW,213,0.0,1.0,95,0.05,,,1.81,,2013-08-23 12:42:00,
2013-08-23 08:52:00,63.0,62.0,30.09,SSW,213,0.0,0.0,95,0.03,,,1.81,,2013-08-23 12:52:00,
2013-08-23 09:12:00,63.0,62.0,30.09,SSW,213,0.0,0.0,95,0.03,,,1.82,,2013-08-23 13:12:00,
2013-08-23 09:22:00,63.0,62.0,30.09,SSW,213,0.0,0.0,95,0.01,,,1.82,,2013-08-23 13:22:00,
2013-08-23 09:42:00,63.0,62.0,30.09,SSW,213,0.0,2.0,95,0.01,,,1.82,,2013-08-23 13:42:00,
2013-08-23 09:53:00,64.0,63.0,30.09,SSW,213,0.0,3.0,95,0.01,,,1.82,,2013-08-23 13:53:00,
2013-08-23 10:12:00,64.0,63.0,30.10,SSW,213,0.0,2.0,95,0.00,,,1.82,,2013-08-23 14:12:00,
2013-08-23 10:22:00,64.0,63.0,30.10,SSW,213,0.0,0.0,95,0.00,,,1.82,,2013-08-23 14:22:00,
2013-08-23 10:42:00,65.0,64.0,30.11,SSW,213,0.0,0.0,95,0.00,,,1.82,,2013-08-23 14:42:00,
2013-08-23 10:52:00,66.0,65.0,30.11,SSW,213,0.0,0.0,95,0.00,,,1.82,,2013-08-23 14:52:00,
2013-08-23 11:11:00,66.0,65.0,30.11,SSW,213,0.0,0.0,95,0.00,,,1.82,,2013-08-23 15:11:00,
2013-08-23 11:22:00,66.0,65.0,30.11,SSW,213,0.0,0.0,95,0.00,,,1.82,,2013-08-23 15:22:00,
2013-08-23 11:44:00,67.0,66.0,30.11,SSW,213,0.0,2.0,95,0.00,,,1.82,,2013-08-23 15:44:00,
2013-08-23 11:54:00,68.0,66.0,30.11,SSW,213,0.0,1.0,94,0.00,,,1.82,,2013-08-23 15:54:00,
2013-08-23 12:14:00,68.0,66.0,30.11,SSW,213,0.0,1.0,93,0.00,,,1.82,,2013-08-23 16:14:00,
2013-08-23 12:24:00,68.0,66.0,30.11,SSW,213,0.0,2.0,92,0.00,,,1.82,,2013-08-23 16:24:00,
2013-08-23 12:42:00,67.0,64.0,30.12,ENE,71,0.0,4.0,89,0.00,,,1.82,,2013-08-23 16:42:00,
2013-08-23 12:53:00,67.0,64.0,30.12,ESE,102,0.0,3.0,89,0.00,,,1.82,,2013-08-23 16:53:00,
2013-08-23 13:13:00,68.0,65.0,30.12,ESE,103,0.0,2.0,90,0.00,,,1.82,,2013-08-23 17:13:00,
2013-08-23 13:24:00,69.0,65.0,30.11,SSE,158,0.0,2.0,87,0.00,,,1.82,,2013-08-23 17:24:00,
2013-08-23 13:43:00,70.0,66.0,30.11,East,80,2.0,4.0,88,0.00,,,1.82,,2013-08-23 17:43:00,
2013-08-23 13:54:00,70.0,65.0,30.12,NNE,25,2.0,6.0,85,0.00,,,1.82,,2013-08-23 17:54:00,
2013-08-23 14:12:00,71.0,65.0,30.12,NE,53,2.0,9.0,81,0.01,,,1.83,,2013-08-23 18:12:00,
2013-08-23 14:22:00,72.0,65.0,30.13,SE,144,1.0,8.0,78,0.01,,,1.83,,2013-08-23 18:22:00,
2013-08-23 14:42:00,72.0,65.0,30.13,SE,132,0.0,9.0,78,0.01,,,1.83,,2013-08-23 18:42:00,
2013-08-23 14:52:00,73.0,66.0,30.12,South,175,0.0,8.0,78,0.01,,,1.83,,2013-08-23 18:52:00,
2013-08-23 15:12:00,73.0,63.0,30.12,ENE,71,0.0,10.0,71,0.00,,,1.83,,2013-08-23 19:12:00,
2013-08-23 15:22:00,73.0,64.0,30.12,NNE,33,0.0,7.0,73,0.00,,,1.83,,2013-08-23 19:22:00,
2013-08-23 15:42:00,73.0,65.0,30.12,SE,127,3.0,10.0,75,0.00,,,1.83,,2013-08-23 19:42:00,
2013-08-23 15:52:00,74.0,64.0,30.12,NE,41,0.0,7.0,71,0.00,,,1.83,,2013-08-23 19:52:00,
2013-08-23 16:12:00,75.0,64.0,30.11,ESE,109,1.0,7.0,69,0.00,,,1.83,,2013-08-23 20:12:00,
2013-08-23 16:22:00,75.0,61.0,30.11,ENE,69,3.0,7.0,62,0.00,,,1.83,,2013-08-23 20:22:00,
2013-08-23 16:42:00,75.0,60.0,30.11,SSE,155,1.0,7.0,60,0.00,,,1.83,,2013-08-23 20:42:00,
2013-08-23 16:52:00,75.0,62.0,30.11,South,174,1.0,5.0,63,0.00,,,1.83,,2013-08-23 20:52:00,
2013-08-23 17:11:00,76.0,62.0,30.11,SE,146,0.0,4.0,63,0.00,,,1.83,,2013-08-23 21:11:00,
2013-08-23 17:22:00,76.0,62.0,30.11,ESE,119,0.0,4.0,61,0.00,,,1.83,,2013-08-23 21:22:00,
2013-08-23 17:44:00,76.0,61.0,30.11,SE,130,1.0,5.0,60,0.00,,,1.83,,2013-08-23 21:44:00,
2013-08-23 17:54:00,76.0,62.0,30.12,ESE,119,0.0,2.0,62,0.00,,,1.83,,2013-08-23 21:54:00,
2013-08-23 18:13:00,76.0,62.0,30.12,ESE,123,0.0,1.0,63,0.00,,,1.83,,2013-08-23 22:13:00,
2013-08-23 18:24:00,76.0,63.0,30.12,SE,124,0.0,1.0,64,0.00,,,1.83,,2013-08-23 22:24:00,
2013-08-23 18:43:00,75.0,62.0,30.11,SE,124,0.0,1.0,64,0.00,,,1.83,,2013-08-23 22:43:00,
2013-08-23 18:53:00,75.0,62.0,30.11,SE,124,0.0,1.0,64,0.00,,,1.83,,2013-08-23 22:53:00,
2013-08-23 19:12:00,75.0,63.0,30.11,SE,124,0.0,0.0,66,0.00,,,1.83,,2013-08-23 23:12:00,
2013-08-23 19:22:00,75.0,62.0,30.11,SE,124,0.0,0.0,63,0.00,,,1.83,,2013-08-23 23:22:00,
2013-08-23 19:43:00,75.0,63.0,30.11,SE,124,0.0,0.0,66,0.00,,,1.83,,2013-08-23 23:43:00,
2013-08-23 19:54:00,73.0,63.0,30.12,SE,124,0.0,0.0,71,0.00,,,1.83,,2013-08-23 23:54:00,
2013-08-23 20:11:00,71.0,62.0,30.13,SE,124,0.0,0.0,74,0.00,,,1.83,,2013-08-24 00:11:00,
2013-08-23 20:22:00,69.0,61.0,30.14,SE,124,0.0,0.0,75,0.00,,,1.83,,2013-08-24 00:22:00,
2013-08-23 20:43:00,67.0,60.0,30.14,SE,124,0.0,1.0,77,0.00,,,1.83,,2013-08-24 00:43:00,
2013-08-23 20:53:00,66.0,59.0,30.15,SE,124,0.0,1.0,77,0.00,,,1.83,,2013-08-24 00:53:00,
2013-08-23 21:11:00,65.0,58.0,30.16,SE,124,0.0,1.0,78,0.00,,,1.83,,2013-08-24 01:11:00,
2013-08-23 21:22:00,65.0,59.0,30.16,SE,124,0.0,2.0,81,0.00,,,1.83,,2013-08-24 01:22:00,
2013-08-23 21:42:00,64.0,58.0,30.17,SE,124,0.0,0.0,82,0.00,,,1.83,,2013-08-24 01:42:00,
2013-08-23 21:53:00,63.0,58.0,30.17,SE,124,0.0,0.0,83,0.00,,,1.83,,2013-08-24 01:53:00,
2013-08-23 22:12:00,64.0,59.0,30.18,SE,124,0.0,1.0,83,0.00,,,1.83,,2013-08-24 02:12:00,
2013-08-23 22:22:00,63.0,58.0,30.18,SE,124,0.0,0.0,85,0.00,,,1.83,,2013-08-24 02:22:00,
2013-08-23 22:42:00,63.0,58.0,30.18,SE,124,0.0,0.0,85,0.00,,,1.83,,2013-08-24 02:42:00,
2013-08-23 22:52:00,63.0,58.0,30.18,SE,124,0.0,1.0,85,0.00,,,1.83,,2013-08-24 02:52:00,
2013-08-23 23:12:00,63.0,58.0,30.19,SE,124,0.0,1.0,85,0.00,,,1.83,,2013-08-24 03:12:00,
2013-08-23 23:22:00,63.0,57.0,30.19,SE,124,0.0,0.0,82,0.00,,,1.83,,2013-08-24 03:22:00,
2013-08-23 23:44:00,63.0,57.0,30.19,SE,124,0.0,1.0,82,0.00,,,1.83,,2013-08-24 03:44:00,
2013-08-23 23:55:00,62.0,56.0,30.19,SE,124,0.0,1.0,81,0.00,,,1.83,,2013-08-24 03:55:00,